Latest Weather Observations for Mandurah

IDW60901

Issued at 11:31 am WST Friday 19 January 2018 (issued every 10 minutes, with the page automatically refreshed every 10 minutes)

About weather observations | Map of Perth area stations | Latest observations for Perth area | Other Formats
Station Details ID: 009977 Name: MANDURAH Lat: -32.52 Lon: 115.71 Height: 3.0 m
Data from the previous 72 hours. | See also: Recent months at Mandurah
Date/Time
WST
Temp
°C
App
Temp
°C
Dew
Point
°C
Rel
Hum
%
Delta-T
°C
Wind Press
QNH
hPa
Press
MSL
hPa
Rain since
9am
mm
Dir  Spd
km/h
Gust
km/h
Spd
kts
Gust
kts
19/11:30am 25.0 21.2 8.9 36 8.7 SE 19 28 10 15 1015.9 1015.9 0.0
19/11:00am 24.4 20.3 8.8 37 8.4 ESE 20 28 11 15 1016.4 1016.4 0.0
19/10:30am 23.3 19.9 9.0 40 7.7 ESE 17 26 9 14 1016.7 1016.7 0.0
19/10:00am 22.6 19.5 9.0 42 7.3 E 15 26 8 14 1017.0 1017.0 0.0
19/09:30am 21.8 18.4 9.3 45 6.7 ESE 17 24 9 13 1017.3 1017.3 0.0
19/09:00am 21.1 17.8 9.4 47 6.2 ESE 17 26 9 14 1017.5 1017.5 0.0
19/08:30am 20.3 17.7 9.2 49 5.9 E 13 22 7 12 1017.6 1017.6 0.0
19/08:00am 19.0 15.2 9.2 53 5.1 ESE 19 26 10 14 1017.5 1017.5 0.0
19/07:30am 17.8 13.8 8.9 56 4.6 ESE 20 28 11 15 1017.4 1017.4 0.0
19/07:00am 17.1 13.2 8.8 58 4.3 ESE 19 26 10 14 1017.4 1017.4 0.0
19/06:30am 16.4 12.5 8.6 60 4.0 ESE 19 30 10 16 1017.2 1017.2 0.0
19/06:00am 15.9 12.8 8.9 63 3.6 ESE 15 22 8 12 1017.0 1017.0 0.0
19/05:30am 15.9 12.8 8.9 63 3.6 ESE 15 24 8 13 1017.0 1017.0 0.0
19/05:00am 16.0 12.5 8.7 62 3.7 ESE 17 28 9 15 1016.7 1016.7 0.0
19/04:30am 16.2 12.7 8.7 61 3.8 ESE 17 24 9 13 1016.5 1016.5 0.0
19/04:00am 16.4 12.9 8.9 61 3.8 ESE 17 26 9 14 1016.4 1016.4 0.0
19/03:30am 16.8 13.7 9.0 60 4.0 ESE 15 22 8 12 1016.4 1016.4 0.0
19/03:00am 17.0 13.5 8.9 59 4.2 ESE 17 26 9 14 1016.2 1016.2 0.0
19/02:30am 17.5 14.2 9.4 59 4.2 ESE 17 26 9 14 1016.2 1016.2 0.0
19/02:00am 18.1 14.5 9.7 58 4.4 ESE 19 28 10 15 1016.2 1016.2 0.0
19/01:30am 18.8 14.7 10.1 57 4.6 ESE 22 32 12 17 1016.0 1016.0 0.0
19/01:00am 19.5 16.5 10.5 56 4.9 SE 17 24 9 13 1015.9 1015.9 0.0
19/12:30am 20.1 16.8 10.8 55 5.1 ESE 19 28 10 15 1015.7 1015.7 0.0
19/12:00am 20.7 18.2 11.1 54 5.3 SE 15 24 8 13 1015.7 1015.7 0.0
 
Date/Time
WST
Temp
°C
App
Temp
°C
Dew
Point
°C
Rel
Hum
%
Delta-T
°C
Wind Press
QNH
hPa
Press
MSL
hPa
Rain since
9am
mm
Dir  Spd
km/h
Gust
km/h
Spd
kts
Gust
kts
18/11:30pm 21.2 18.7 11.2 53 5.5 SE 15 22 8 12 1015.7 1015.7 0.0
18/11:00pm 21.5 18.7 11.5 53 5.6 SE 17 26 9 14 1015.6 1015.6 0.0
18/10:30pm 22.0 19.6 12.5 54 5.4 SSE 17 26 9 14 1015.4 1015.4 0.0
18/10:00pm 22.5 19.8 13.0 55 5.4 SE 19 28 10 15 1015.4 1015.4 0.0
18/09:30pm 22.9 20.8 13.7 56 5.3 SSE 17 24 9 13 1015.2 1015.2 0.0
18/09:00pm 23.7 21.0 13.0 51 6.2 SE 19 24 10 13 1014.8 1014.8 0.0
18/08:30pm 24.3 22.3 12.6 48 6.7 SE 15 20 8 11 1014.4 1014.4 0.0
18/08:00pm 24.7 22.7 12.6 47 7.0 SE 15 22 8 12 1014.1 1014.1 0.0
18/07:30pm 25.3 23.5 13.2 47 7.1 SE 15 24 8 13 1013.6 1013.6 0.0
18/07:00pm 24.1 24.0 15.9 60 5.0 SW 11 20 6 11 1013.3 1013.3 0.0
18/06:30pm 24.3 23.6 15.5 58 5.3 SSW 13 22 7 12 1013.0 1013.0 0.0
18/06:00pm 24.4 22.8 15.1 56 5.6 SSW 17 24 9 13 1012.8 1012.8 0.0
18/05:30pm 24.6 22.3 14.7 54 5.9 SSW 20 30 11 16 1012.6 1012.6 0.0
18/05:00pm 25.0 22.8 14.8 53 6.1 SSW 20 33 11 18 1012.5 1012.5 0.0
18/04:30pm 26.0 24.0 15.4 52 6.4 SSW 20 32 11 17 1012.5 1012.5 0.0
18/04:00pm 27.4 24.9 13.4 42 8.3 S 19 26 10 14 1012.4 1012.4 0.0
18/03:30pm 26.2 24.1 15.3 51 6.6 SSW 20 32 11 17 1012.4 1012.4 0.0
18/03:00pm 26.4 24.7 14.8 49 7.0 S 17 30 9 16 1012.6 1012.6 0.0
18/02:30pm 26.8 24.7 13.5 44 7.8 S 17 30 9 16 1012.7 1012.7 0.0
18/02:00pm 26.7 24.9 13.4 43 7.8 S 15 24 8 13 1012.9 1012.9 0.0
18/01:30pm 25.4 23.5 12.9 45 7.3 SSE 15 24 8 13 1013.0 1013.0 0.0
18/01:00pm 25.7 23.5 13.2 46 7.3 SSE 17 26 9 14 1013.0 1013.0 0.0
18/12:30pm 24.7 22.5 13.3 49 6.6 S 17 24 9 13 1013.2 1013.2 0.0
18/12:00pm 24.6 23.1 14.1 52 6.2 SSE 15 22 8 12 1013.4 1013.4 0.0
18/11:30am 23.3 21.4 14.3 57 5.3 SSE 17 28 9 15 1013.6 1013.6 0.0
18/11:00am 22.8 20.7 14.6 60 4.8 S 19 30 10 16 1013.7 1013.7 0.0
18/10:30am 22.6 20.0 13.1 55 5.5 S 19 26 10 14 1013.7 1013.7 0.0
18/10:00am 22.1 19.1 12.4 54 5.5 SSE 20 33 11 18 1013.8 1013.8 0.0
18/09:30am 21.4 19.6 13.3 60 4.6 SSE 15 24 8 13 1013.7 1013.7 0.0
18/09:00am 20.3 17.9 13.7 66 3.8 SSE 19 30 10 16 1014.0 1014.0 0.2
18/08:30am 20.0 17.8 13.2 65 3.9 SE 17 28 9 15 1013.9 1013.9 0.2
18/08:00am 20.1 16.6 13.3 65 3.9 SE 24 35 13 19 1013.7 1013.7 0.2
18/07:30am 19.1 16.9 14.4 74 2.7 SSE 19 28 10 15 1013.4 1013.4 0.2
18/07:00am 18.8 16.8 14.9 78 2.3 SSE 19 28 10 15 1013.2 1013.2 0.2
18/06:30am 18.7 16.5 14.8 78 2.3 S 20 32 11 17 1012.9 1012.9 0.2
18/06:00am 18.9 16.5 14.4 75 2.6 S 20 32 11 17 1012.5 1012.5 0.2
18/05:30am 19.0 16.6 14.3 74 2.7 S 20 28 11 15 1012.1 1012.1 0.2
18/05:00am 19.1 17.0 14.6 75 2.6 S 19 28 10 15 1011.5 1011.5 0.2
18/04:30am 19.2 16.5 14.7 75 2.6 S 22 33 12 18 1011.2 1011.2 0.2
18/04:00am 19.5 16.9 15.0 75 2.6 S 22 35 12 19 1010.6 1010.6 0.2
18/03:30am 19.8 17.3 15.2 75 2.7 S 22 32 12 17 1010.3 1010.3 0.2
18/03:00am 19.9 17.5 15.3 75 2.7 S 22 33 12 18 1010.0 1010.0 0.2
18/02:30am 20.2 18.3 15.8 76 2.6 S 20 30 11 16 1009.7 1009.7 0.2
18/02:00am 20.2 18.3 15.8 76 2.6 S 20 32 11 17 1009.6 1009.6 0.2
18/01:30am 20.3 18.8 16.3 78 2.4 S 19 28 10 15 1009.4 1009.4 0.2
18/01:00am 20.4 17.6 16.4 78 2.4 S 26 39 14 21 1009.3 1009.3 0.2
18/12:30am 20.5 18.1 16.5 78 2.4 S 24 35 13 19 1009.4 1009.4 0.2
18/12:00am 20.8 18.9 16.8 78 2.4 S 22 35 12 19 1009.4 1009.4 0.2
 
Date/Time
WST
Temp
°C
App
Temp
°C
Dew
Point
°C
Rel
Hum
%
Delta-T
°C
Wind Press
QNH
hPa
Press
MSL
hPa
Rain since
9am
mm
Dir  Spd
km/h
Gust
km/h
Spd
kts
Gust
kts
17/11:30pm 20.8 19.6 17.0 79 2.3 SSW 19 30 10 16 1009.3 1009.3 0.2
17/11:00pm 21.1 19.7 17.1 78 2.4 S 20 39 11 21 1009.2 1009.2 0.2
17/10:30pm 21.3 19.7 17.5 79 2.3 SSW 22 33 12 18 1009.1 1009.1 0.2
17/10:00pm 21.6 20.1 17.8 79 2.4 S 22 35 12 19 1008.9 1008.9 0.2
17/09:30pm 21.7 21.4 18.3 81 2.1 SSW 17 28 9 15 1008.6 1008.6 0.2
17/09:00pm 21.8 21.1 18.6 82 2.0 SSW 20 30 11 16 1008.1 1008.1 0.2
17/08:30pm 22.0 20.8 18.4 80 2.3 S 22 39 12 21 1007.7 1007.7 0.2
17/08:00pm 22.3 21.6 18.7 80 2.3 SSW 20 32 11 17 1007.2 1007.2 0.2
17/07:30pm 22.6 22.0 18.8 79 2.4 SSW 20 32 11 17 1006.9 1006.9 0.2
17/07:00pm 22.8 22.5 19.2 80 2.3 SSW 19 33 10 18 1006.6 1006.6 0.2
17/06:30pm 23.0 23.3 19.6 81 2.2 SW 17 28 9 15 1006.3 1006.3 0.2
17/06:00pm 23.2 23.0 19.4 79 2.4 SW 19 30 10 16 1005.8 1005.8 0.2
17/05:30pm 24.3 24.2 19.6 75 3.0 SSW 19 32 10 17 1005.3 1005.3 0.2
17/05:00pm 24.1 23.9 19.4 75 3.0 SSW 19 33 10 18 1005.2 1005.2 0.2
17/04:30pm 24.3 24.4 20.0 77 2.8 SW 19 30 10 16 1005.1 1005.1 0.2
17/04:00pm 24.8 25.3 20.1 75 3.1 SW 17 28 9 15 1005.0 1005.0 0.2
17/03:30pm 24.8 25.0 20.1 75 3.0 SW 19 28 10 15 1005.0 1005.0 0.2
17/03:00pm 24.4 24.7 20.3 78 2.7 SSW 19 28 10 15 1005.2 1005.2 0.2
17/02:30pm 24.6 24.8 20.5 78 2.7 SW 20 32 11 17 1005.2 1005.2 0.2
17/02:00pm 24.5 24.9 21.0 81 2.3 SW 20 30 11 16 1005.1 1005.1 0.2
17/01:30pm 25.9 28.1 23.2 85 1.8 SW 17 22 9 12 1005.0 1005.0 0.2
17/01:00pm 25.6 28.5 25.1 97 0.3 WSW 19 24 10 13 1004.7 1004.7 0.2
17/12:30pm 24.3 27.1 24.3 100 0.0 WSW 17 22 9 12 1004.8 1004.8 0.2
17/12:00pm 23.3 26.7 23.3 100 0.0 W 11 15 6 8 1004.8 1004.8 0.2
17/11:30am 22.9 25.3 22.9 100 0.0 NW 15 19 8 10 1005.0 1005.0 0.2
17/11:00am 23.1 25.6 23.1 100 0.0 NW 15 19 8 10 1005.0 1005.0 0.2
17/10:30am 22.9 25.3 22.9 100 0.0 NW 15 17 8 9 1005.0 1005.0 0.0
17/10:00am 22.7 25.0 22.7 100 0.0 NNW 15 19 8 10 1005.0 1005.0 0.0
17/09:30am 22.8 25.1 22.8 100 0.0 NNW 15 17 8 9 1005.0 1005.0 0.0
17/09:00am 22.8 25.1 22.8 100 0.0 NNW 15 17 8 9 1004.9 1004.9 0.8
17/08:30am 22.7 25.7 22.7 100 0.0 N 11 15 6 8 1004.9 1004.9 0.8
17/08:00am 22.6 25.9 22.6 100 0.0 N 9 13 5 7 1004.8 1004.8 0.8
17/07:30am 22.3 25.9 22.3 100 0.0 N 7 9 4 5 1004.9 1004.9 0.8
17/07:00am 22.4 26.6 22.4 100 0.0 N 4 6 2 3 1004.7 1004.7 0.6
17/06:30am 22.4 26.6 22.4 100 0.0 N 4 6 2 3 1004.4 1004.4 0.6
17/06:00am 22.2 27.0 22.2 100 0.0 CALM 0 0 0 0 1004.2 1004.2 0.4
17/05:30am 22.2 25.9 22.2 100 0.0 NNW 6 7 3 4 1004.1 1004.1 0.2
17/05:00am 22.5 26.4 22.5 100 0.0 N 6 7 3 4 1004.1 1004.1 0.0
17/04:30am 22.6 26.5 22.6 100 0.0 N 6 7 3 4 1003.9 1003.9 0.0
17/04:00am 22.6 26.5 22.6 100 0.0 N 6 7 3 4 1003.9 1003.9 0.0
17/03:30am 22.7 26.1 22.7 100 0.0 N 9 13 5 7 1004.0 1004.0 0.0
17/03:00am 22.6 25.6 22.6 100 0.0 N 11 13 6 7 1004.3 1004.3 0.0
17/02:30am 22.8 27.2 22.8 100 0.0 NNE 4 6 2 3 1004.3 1004.3 0.0
17/02:00am 22.6 26.5 22.6 100 0.0 NNE 6 7 3 4 1004.5 1004.5 0.0
17/01:30am 22.5 26.2 22.5 100 0.0 NNE 7 9 4 5 1004.6 1004.6 0.0
17/01:00am 22.8 26.3 22.8 100 0.0 N 9 11 5 6 1004.4 1004.4 0.0
17/12:30am 22.8 26.3 22.8 100 0.0 NNW 9 11 5 6 1004.4 1004.4 0.0
17/12:00am 23.0 26.8 22.8 99 0.1 N 7 11 4 6 1004.4 1004.4 0.0
 
Date/Time
WST
Temp
°C
App
Temp
°C
Dew
Point
°C
Rel
Hum
%
Delta-T
°C
Wind Press
QNH
hPa
Press
MSL
hPa
Rain since
9am
mm
Dir  Spd
km/h
Gust
km/h
Spd
kts
Gust
kts
16/11:30pm 23.0 27.0 22.7 98 0.2 N 6 7 3 4 1004.7 1004.7 0.0
16/11:00pm 23.0 26.7 22.5 97 0.3 NNW 7 9 4 5 1005.1 1005.1 0.0
16/10:30pm 23.1 27.1 22.1 94 0.7 NNW 4 6 2 3 1005.1 1005.1 0.0
16/10:00pm 23.4 26.9 21.8 91 1.1 NNW 6 7 3 4 1005.3 1005.3 0.0
16/09:30pm 23.5 27.9 21.4 88 1.4 CALM 0 0 0 0 1005.1 1005.1 0.0
16/09:00pm 23.5 27.8 21.2 87 1.5 CALM 0 0 0 0 1005.0 1005.0 0.0
16/08:30pm 23.4 27.7 21.1 87 1.5 CALM 0 0 0 0 1005.0 1005.0 0.0
16/08:00pm 23.6 26.6 21.3 87 1.5 W 7 9 4 5 1005.1 1005.1 0.0
16/07:30pm 23.5 26.5 21.2 87 1.5 NW 7 9 4 5 1004.8 1004.8 0.0
16/07:00pm 24.1 28.1 21.4 85 1.8 NNW 2 4 1 2 1004.3 1004.3 0.0
16/06:30pm 24.1 27.4 21.4 85 1.8 NNW 6 7 3 4 1004.4 1004.4 0.0
16/06:00pm 24.7 28.3 21.2 81 2.3 WNW 4 4 2 2 1004.3 1004.3 0.0
16/05:30pm 24.6 28.3 21.5 83 2.1 WNW 4 4 2 2 1004.0 1004.0 0.0
16/05:00pm 24.1 28.0 21.2 84 1.9 WNW 2 4 1 2 1004.0 1004.0 0.0
16/04:30pm 24.1 28.1 21.4 85 1.8 WNW 2 4 1 2 1004.0 1004.0 0.0
16/04:00pm 24.6 28.3 21.5 83 2.1 WNW 4 6 2 3 1004.1 1004.1 0.0
16/03:30pm 24.4 27.3 21.1 82 2.2 WNW 7 11 4 6 1004.4 1004.4 0.0
16/03:00pm 24.4 26.6 21.1 82 2.2 WNW 11 15 6 8 1004.5 1004.5 0.0
16/02:30pm 24.5 26.3 21.2 82 2.2 WNW 13 17 7 9 1004.6 1004.6 0.0
16/02:00pm 24.2 25.6 21.1 83 2.0 WNW 15 19 8 10 1004.7 1004.7 0.0
16/01:30pm 24.3 24.4 20.4 79 2.5 WNW 20 26 11 14 1004.7 1004.7 0.0
16/01:00pm 25.0 24.0 19.6 72 3.5 WNW 24 32 13 17 1004.9 1004.9 0.0
16/12:30pm 27.0 28.6 19.9 65 4.6 NNE 11 15 6 8 1004.7 1004.7 0.0
16/12:00pm 27.8 28.6 19.8 61 5.2 NE 15 26 8 14 1004.7 1004.7 0.0

Latest Capital City Observations: Canberra | Sydney | Melbourne | Brisbane | Adelaide | Perth | Hobart | Darwin

Other Formats:

Comma delimited format used in spreadsheet applications
http://www.bom.gov.au/fwo/IDW60901/IDW60901.94605.axf

JavaScript Object Notation format (JSON) in row-major order
http://www.bom.gov.au/fwo/IDW60901/IDW60901.94605.json